Diablo, Washington
Current Conditions -  °F | °C
As of 11:15 AM on Tuesday 27 Jan 2015 (Local Time) from KAWO Reporting Station
Overcast Overcast  
Wind Chill: 52°   Ceiling: 2400
Heat Index: 52°   Visibility: 10mi
Dew Point: 46°   Wind: 6mph
Humidity: 82%   Direction: 210°SSW
Pressure: 30.09"   Gusts: NA
Location:  48.571°N, 121.561°W
Report Text: KAWO 271915Z AUTO 21005KT 10SM FEW017 BKN024 OVC032 11/08 A3009 RMK AO1
Loading
Personal Weather Stations






























Interactive Weather Map New forecast layout! Learn more

10-Day Weather Forecast

Advertisements
Track Severe Weather on mobile